Terminal Aerodrome Forecast
Issued by NWS Portland, ME

Home | Current Version | Previous Version | Text Only | Print | Product List | Glossary On
Versions: 1 2 3 4 5 6 7 8 9 10 11 12 13 14 15 16 17 18 19 20 21 22 23 24 25
701
FTUS41 KGYX 311720
TAFPWM
TAF
KPWM 311720Z 3118/0118 26010G19KT P6SM FEW050
     FM312300 29005KT P6SM SKC
     FM011200 01008KT P6SM SKC
     FM011600 10008KT P6SM FEW250=

USA.gov is the U.S. government's official web portal to all federal, state and local government web resources and services.